Portada
METAR-TAF:

METAR-TAF

Aeroports :

Sibu, Malàisia

latitud: 02-20N, longitud: 111-50E, altitud: 8 m

Observació

L'informe es va fer fa 42 minuts, a les 14:00 UTC
Vent 2 kt amb direcció variable
Temperatura 23°C
Humitat 100%
Pressió 1012 hPa
Visibilitat 10 km o més
Núvols disperses a una alçada de 500 ft
Núvols disperses a una alçada de 1400 ft
Cel cobert a una alçada de 14000 ft
pluja

METAR: WBGS 261400Z VRB02KT 9999 -RA SCT005 SCT014 OVC140 23/23 Q1012

Hora: 22:42 (14:42 UTC)

Pronòstic

L'informe es va fer fa 3 hores i 42 minuts, a les 11:00 UTC
Pronòstic vàlid del 26 a les 12 UTC al 27 a les 12 UTC
Vent 5 kt del Nord-Est
Visibilitat 10 km o més
Núvols disperses a una alçada de 1400 ft
Temporalment
l' 26 a les 12 UTC al 26 a les 17 UTC
Visibilitat: 5000 m
Escasses núvols a una alçada de 300 ft
pluja

TAF: WBGS 261100Z 2612/2712 05005KT 9999 SCT014 TEMPO 2612/2617 5000 RA FEW003

Observacions i pronòstics meteorològics de més de 4000 aeroports (METAR i TAF).

Les estacions disponibles són els punts grocs i vermells al mapa.

Posi el ratolí al punt desitjat per veure el nom de l'estació.

Feu clic per veure les observacions i els pronòstics meteorològics.

Per canviar el mapa: feu clic els botons verds amb una creu de color negre per apropar; al botó verd amb un guió per allunyar la imatge; o en les fletxes verdes per a mapes adjacents.


METAR-TAF: